หน้าหลัก
METAR-TAF:

METAR-TAF

ท่าอากาศยาน :

ยาอุนเด, แคเมอรูน

ละติจูด: 03-50N, ลองจิจูด: 011-31E, ความสูง: 751 ม.

การสังเกตสภาพอากาศปัจจุบัน

รายงานได้ทำขึ้นเมื่อ 1 ชั่วโมงและ 5 นาทีที่แล้ว ณ เวลา 08:00 UTC
ลม 4 นอตจากตะวันตก/ตะวันตกเฉียงใต้, แปรผันระหว่างตะวันตกเฉียงใต้ และตะวันตก
อุณหภูมิ 24°C
ความชื้น 100%
ความกดอากาศ 1019 hPa
ทัศนวิสัย: 4000 ม.
มีเมฆเป็นส่วนมากเว้นเป็นระยะที่ความสูง 1000 ฟุต
หมอกน้ำค้าง,

METAR: FKYS 250800Z 25004KT 220V280 4000 BR BKN010 24/24 Q1019 NOSIG

เวลา: 10:05 (09:05 UTC)

การพยากรณ์

รายงานได้ทำขึ้นเมื่อ 4 ชั่วโมงและ 5 นาทีที่แล้ว ณ เวลา 05:00 UTC
การพยากรณ์มีผลตั้งแต่วันที่ 25 ณ เวลา 06 UTC จนถึงวันที่ 26 ณ เวลา 06 UTC
ลม 4 นอตจากทิศทางซึ่งแปรผันได้
ทัศนวิสัย: 6000 ม.
มีเมฆเป็นส่วนมากเว้นเป็นระยะที่ความสูง 600 ฟุต
กำลังกลายเป็น
ตั้งแต่วันที่ 25 ณ เวลา 07 UTC จนถึงวันที่ 25 ณ เวลา 09 UTC
มีเมฆกระจายเป็นบางส่วนที่ความสูง 1600 ฟุต
กำลังกลายเป็น
ตั้งแต่วันที่ 25 ณ เวลา 20 UTC จนถึงวันที่ 25 ณ เวลา 22 UTC
มีเมฆเป็นส่วนมากเว้นเป็นระยะที่ความสูง 600 ฟุต

TAF: FKYS 250500Z 2506/2606 VRB04KT 6000 BKN006 BECMG 2507/2509 SCT016 BECMG 2520/2522 BKN006

สังเกตการณ์สภาพอากาศและพยากรณ์อากาศของสนามบินมากกว่า 4000 แห่ง (รายงาน METAR และ TAF).

สถานีที่ดูได้จะแสดงไว้ด้วยจุดสีเหลืองและสีแดงบนแผนที่.

เลื่อนเมาส์ไปเหนือจุดเพื่อดูชื่อสถานี.

แล้วคลิกเพื่อดูสังเกตการณ์และการพยากรณ์สภาพอากาศ.

ในการเปลี่ยนแผนที่: คลิกที่ปุ่มสีเขียวที่มีกากบาทสีดำเพื่อซูมเข้า; ที่ปุ่มสีเขียวที่มีขีดเพื่อซูมออก; หรือที่ลูกศรสีเขียวเพื่อไปยังแผนที่ที่อยู่ติดกัน.


METAR-TAF: